Date,TemperatureHighF,TemperatureAvgF,TemperatureLowF,DewpointHighF,DewpointAvgF,DewpointLowF,HumidityHigh,HumidityAvg,HumidityLow,PressureMaxIn,PressureMinIn,WindSpeedMaxMPH,WindSpeedAvgMPH,GustSpeedMaxMPH,PrecipitationSumIn
2013-1-1,20.5,7.9,-11.6,16.4,1.7,-17.5,84,76,66,30.25,29.97,10,2,12,0.00
2013-1-2,29.7,21.2,15.8,19.4,15.5,10.4,85,79,64,30.09,29.90,14,4,18,0.00
2013-1-3,17.1,11.2,5.7,10.3,5.8,0.2,85,78,70,30.25,29.92,15,6,21,0.00
2013-1-4,32.2,19.6,9.3,20.2,12.8,4.8,86,75,60,30.10,29.96,12,2,17,0.00
2013-1-5,22.5,13.5,4.5,14.5,8.6,-0.1,85,80,70,30.04,29.84,9,2,14,0.00
2013-1-6,22.8,14.7,9.0,14.3,9.0,4.8,88,78,66,30.19,29.90,12,4,16,0.00
2013-1-7,40.5,27.1,15.6,27.7,20.4,9.9,86,76,60,29.94,29.81,13,4,21,0.00
2013-1-8,36.7,24.1,9.7,27.1,18.7,5.0,88,80,66,29.95,29.69,15,4,24,0.00
2013-1-9,33.1,27.9,22.3,27.3,20.6,16.4,85,74,63,30.30,29.83,21,7,36,0.00
2013-1-10,42.4,32.4,22.6,30.3,24.9,17.6,90,75,51,30.23,29.67,18,6,23,0.08
2013-1-11,39.0,35.5,32.9,35.5,32.9,30.3,92,90,86,29.68,29.33,12,4,17,0.06
2013-1-12,34.5,11.1,0.9,32.4,4.8,-5.5,92,75,67,30.06,29.34,22,8,29,0.00
2013-1-13,8.4,2.8,-2.7,0.7,-3.5,-8.2,81,75,67,30.20,30.04,11,4,15,0.00
2013-1-14,12.9,6.1,-1.5,3.9,-0.1,-6.2,83,75,65,30.38,30.19,10,3,14,0.00
2013-1-15,24.1,15.9,4.8,14.0,8.7,0.3,83,73,60,30.21,29.72,15,6,21,0.00
2013-1-16,32.7,23.2,4.8,29.6,13.6,-5.7,89,67,47,30.25,29.60,18,8,23,0.00
2013-1-17,18.3,11.0,3.0,8.2,1.2,-7.1,72,64,59,30.37,30.23,10,3,14,0.00
2013-1-18,40.3,25.8,15.3,28.9,19.2,7.9,85,76,62,30.23,29.69,11,4,15,0.00
2013-1-19,38.5,18.8,-2.4,30.2,12.1,-9.5,90,75,59,30.24,29.67,30,9,38,0.00
2013-1-20,7.0,-0.3,-6.2,-2.0,-8.4,-13.7,74,68,60,30.38,30.23,17,7,25,0.00
2013-1-21,-5.1,-9.8,-14.1,-13.7,-17.9,-21.8,74,67,60,30.32,30.24,17,6,24,0.00
2013-1-22,5.2,-4.5,-15.2,-4.2,-12.6,-21.1,75,68,55,30.36,30.19,8,2,12,0.00
2013-1-23,11.7,3.4,-8.7,3.6,-6.3,-18.9,78,64,50,30.60,30.12,24,7,32,0.00
2013-1-24,12.0,2.1,-9.2,2.2,-8.6,-19.0,65,60,53,30.64,30.10,13,6,18,0.00
2013-1-25,15.8,9.3,-1.3,9.6,0.7,-8.1,76,68,61,30.30,29.89,19,8,26,0.00
2013-1-26,22.6,10.9,-3.5,12.6,2.0,-9.8,77,67,54,30.31,30.06,14,4,17,0.00
2013-1-27,37.6,26.8,18.1,26.9,19.8,10.8,88,75,58,30.07,29.78,11,5,15,0.00
2013-1-28,42.8,33.3,28.6,35.1,29.4,25.2,91,86,74,29.86,29.64,13,2,18,0.08
2013-1-29,36.3,31.3,24.8,30.6,26.6,18.9,92,83,71,29.79,29.52,18,5,23,0.00
2013-1-30,25.3,14.1,5.2,18.9,7.4,-1.6,82,74,66,29.78,29.69,21,11,25,0.00
2013-1-31,5.7,-1.9,-11.0,-1.3,-10.1,-18.7,74,68,61,30.25,29.75,21,10,27,0.00
2013-2-1,6.4,-4.4,-15.5,-4.6,-12.6,-21.6,73,68,53,30.27,30.04,12,3,20,0.00
2013-2-2,18.1,6.6,-2.2,4.0,-1.7,-8.5,78,69,52,30.16,29.95,9,3,12,0.00
2013-2-3,19.6,9.5,0.3,7.2,1.6,-4.7,80,70,56,30.06,29.95,12,4,21,0.00
2013-2-4,22.3,11.1,0.5,9.2,1.0,-6.6,79,64,46,30.05,29.68,12,4,15,0.00
2013-2-5,28.2,19.9,6.1,22.6,12.9,0.1,87,74,57,30.05,29.61,18,4,22,0.00
2013-2-6,31.3,19.5,10.9,20.3,12.6,1.2,81,74,62,30.06,29.90,15,4,17,0.00
2013-2-7,30.4,23.8,16.5,23.7,18.6,10.9,88,80,73,30.27,29.99,16,6,21,0.00
2013-2-8,35.8,18.4,3.7,21.6,11.5,-1.1,84,75,55,30.34,30.14,14,4,20,0.00
2013-2-9,31.8,28.3,22.5,27.9,24.1,16.6,89,84,78,30.16,29.88,15,7,21,0.00
2013-2-10,31.6,28.1,26.6,27.1,24.8,23.5,89,87,82,29.89,29.33,18,8,36,0.00
2013-2-11,27.7,22.3,10.6,24.3,16.3,5.9,88,78,67,30.01,29.37,20,9,29,0.00
2013-2-12,34.2,23.4,12.6,22.5,16.3,8.6,86,75,59,30.01,29.78,11,4,16,0.04
2013-2-13,49.8,31.4,19.2,32.2,24.6,15.4,90,77,50,29.79,29.57,9,2,12,0.00
2013-2-14,31.6,21.8,7.3,28.9,13.5,-2.5,90,72,45,30.18,29.61,18,5,23,0.00
2013-2-15,17.8,8.3,1.2,5.5,0.7,-3.9,82,71,56,30.30,30.17,12,5,16,0.00
2013-2-16,23.0,11.0,-0.6,11.2,3.4,-6.1,82,71,57,30.24,30.05,8,2,10,0.00
2013-2-17,35.8,21.3,6.4,23.0,13.6,1.2,81,72,57,30.09,29.57,16,7,23,0.00
2013-2-18,32.7,18.5,4.3,28.5,12.2,-2.0,87,76,64,29.85,29.48,20,8,28,0.00
2013-2-19,6.1,0.7,-6.9,-1.4,-7.7,-13.6,75,67,57,30.37,29.83,22,10,32,0.00
2013-2-20,18.5,2.3,-10.1,3.7,-6.3,-16.2,77,67,51,30.44,30.34,8,2,10,0.00
2013-2-21,26.4,13.4,-2.4,14.2,3.9,-8.6,79,66,49,30.44,30.09,13,4,17,0.00
2013-2-22,38.1,25.1,19.6,24.5,18.7,13.6,85,77,57,30.12,29.84,13,3,36,0.02
2013-2-23,36.1,25.4,13.1,24.9,18.4,8.1,86,75,58,29.93,29.82,8,2,12,0.00
2013-2-24,45.0,21.6,5.7,26.6,12.9,0.6,86,70,46,30.08,29.92,7,0,9,0.00
2013-2-25,41.9,22.4,9.1,26.6,15.2,4.1,86,74,52,30.10,30.03,8,1,10,0.00
2013-2-26,38.5,25.1,14.2,27.4,18.8,11.2,89,78,62,30.06,29.91,10,2,13,0.00
2013-2-27,44.2,31.6,21.6,26.1,21.5,15.8,78,67,47,30.07,29.90,18,6,24,0.24
2013-2-28,31.8,27.0,17.8,21.7,18.6,11.5,77,70,62,30.24,30.06,14,5,16,0.00
2013-3-1,34.2,22.6,11.5,19.7,13.2,2.1,80,67,54,30.36,30.23,11,4,14,0.00
2013-3-2,38.5,18.9,-0.6,16.8,6.9,-6.6,80,61,39,30.34,30.12,9,2,14,0.00
2013-3-3,39.7,27.9,18.9,17.6,13.0,9.4,67,54,39,30.12,29.93,18,8,24,0.00
2013-3-4,29.7,25.5,22.8,21.0,17.3,10.6,85,71,52,30.01,29.91,20,9,34,0.00
2013-3-5,37.2,26.9,21.6,25.8,21.0,16.5,86,78,62,30.31,29.95,14,6,28,0.02
2013-3-6,40.1,23.6,6.3,22.4,14.9,0.3,82,70,47,30.41,30.30,11,3,13,0.02
2013-3-7,39.7,21.2,3.0,21.5,11.1,-2.6,83,66,47,30.35,30.23,15,4,20,0.00
2013-3-8,47.8,29.5,14.4,29.7,20.3,9.3,84,70,49,30.28,30.05,10,4,13,0.00
2013-3-9,39.0,35.0,32.2,34.1,31.2,26.7,91,86,80,30.05,29.69,13,4,18,0.55
2013-3-10,34.7,30.4,25.5,30.2,24.4,19.3,87,78,67,30.03,29.81,22,12,28,0.00
2013-3-11,34.3,26.1,20.3,21.0,18.1,14.5,82,72,55,29.94,29.76,16,7,33,0.00
2013-3-12,30.4,23.1,16.5,18.3,13.6,9.3,79,67,46,30.21,29.82,21,9,24,0.00
2013-3-13,38.1,20.7,7.3,20.3,12.0,3.3,85,70,46,30.36,30.19,9,3,50,1.21
2013-3-14,51.3,33.4,24.1,32.1,23.6,16.0,83,68,45,30.19,29.99,14,4,16,0.02
2013-3-15,39.2,30.7,21.9,31.6,25.2,17.5,88,80,65,30.00,29.84,13,5,17,0.04
2013-3-16,22.1,16.4,5.2,17.5,8.0,-2.9,83,70,53,30.24,29.93,15,7,20,0.00
2013-3-17,37.2,17.3,-2.7,15.6,5.0,-8.4,78,60,38,30.26,29.78,17,7,24,0.00
2013-3-18,30.4,21.4,9.5,27.5,14.2,2.8,89,74,61,29.82,29.54,24,11,34,0.00
2013-3-19,21.9,11.3,3.6,4.9,0.1,-4.1,75,61,41,30.19,29.82,21,11,29,0.00
2013-3-20,20.8,10.8,3.4,3.9,-1.3,-5.8,67,58,47,30.21,30.10,20,10,29,0.75
2013-3-21,31.1,13.7,-2.4,11.9,1.9,-9.2,76,60,42,30.13,30.03,9,1,10,0.00
2013-3-22,40.5,19.9,0.3,18.4,7.7,-6.0,81,61,39,30.08,30.01,7,1,10,0.00
2013-3-23,49.3,26.7,9.0,21.9,14.2,2.8,80,61,32,30.16,30.05,11,2,14,0.00
2013-3-24,42.1,30.6,24.1,25.7,21.6,17.5,80,70,49,30.10,29.99,14,5,18,0.00
2013-3-25,39.0,30.3,22.5,22.3,18.0,14.1,76,61,43,30.24,30.06,19,8,22,0.00
2013-3-26,43.3,28.2,16.2,22.9,16.4,11.2,82,63,37,30.28,30.23,9,3,10,0.00
2013-3-27,49.3,30.3,12.4,24.5,16.5,6.7,83,59,35,30.32,30.27,9,1,12,0.00
2013-3-28,52.2,34.3,14.7,29.4,20.0,9.3,83,59,37,30.32,30.23,11,3,15,0.00
2013-3-29,56.7,42.3,29.8,36.9,30.4,21.2,78,64,46,30.25,30.00,11,4,18,0.00
2013-3-30,49.1,41.6,31.8,39.4,35.1,28.1,88,78,63,30.00,29.84,13,5,18,0.26
2013-3-31,36.0,30.9,18.5,30.2,21.1,10.5,89,68,45,30.12,29.78,22,10,32,0.00
2013-4-1,33.3,22.1,13.1,16.6,11.3,7.2,78,64,44,30.26,30.10,16,7,22,0.00
2013-4-2,38.5,24.6,12.0,17.2,13.0,7.3,84,63,39,30.34,30.23,12,3,16,0.00
2013-4-3,47.5,32.1,13.8,33.2,21.5,8.2,83,66,50,30.34,29.95,19,6,28,0.00
2013-4-4,43.9,37.8,27.1,32.1,27.2,19.6,84,66,48,30.18,29.95,17,7,22,0.00
2013-4-5,45.1,32.0,19.8,30.2,23.1,14.4,83,71,43,30.23,29.86,18,7,22,0.00
2013-4-6,51.4,39.2,33.6,36.4,32.1,28.7,84,76,55,29.90,29.56,18,8,23,0.02
2013-4-7,52.3,41.5,34.2,36.1,32.4,28.0,86,71,52,29.92,29.73,12,4,16,0.14
2013-4-8,44.2,39.5,36.1,38.3,35.2,32.2,91,85,78,30.08,29.69,14,5,16,0.08
2013-4-9,39.6,34.1,28.6,32.3,24.3,20.4,85,68,54,30.20,30.01,22,10,26,0.00
2013-4-10,42.6,36.6,32.7,25.4,21.9,17.0,68,55,43,30.20,29.92,16,8,23,0.00
2013-4-11,40.3,33.0,27.7,30.5,25.0,9.7,90,73,49,29.97,29.72,20,9,26,0.08
2013-4-12,44.6,32.5,26.4,30.6,25.5,22.7,89,77,52,29.84,29.70,14,6,17,0.10
2013-4-13,47.5,33.6,21.4,29.7,23.7,14.4,89,69,42,29.94,29.81,10,3,14,0.02
2013-4-14,36.0,30.9,21.0,30.4,25.2,14.3,89,79,64,29.94,29.45,24,7,35,0.08
2013-4-15,43.7,36.1,31.6,32.7,29.2,27.1,90,76,62,29.95,29.43,22,8,29,0.04
2013-4-16,49.8,36.8,28.9,28.6,25.8,21.0,81,65,43,30.31,29.88,20,6,24,0.00
2013-4-17,42.6,35.4,26.8,30.9,27.3,20.3,89,73,61,30.32,29.98,14,5,17,0.00
2013-4-18,34.7,31.5,30.0,30.8,28.6,27.5,92,89,84,30.05,29.59,21,11,25,0.02
2013-4-19,41.0,32.6,24.6,27.7,22.8,14.0,91,69,36,30.00,29.56,28,12,33,0.02
2013-4-20,47.5,31.3,13.6,22.4,15.8,8.3,83,56,31,30.26,29.95,12,2,14,0.00
2013-4-21,53.2,39.5,30.7,40.8,31.8,14.2,89,75,54,30.28,29.98,20,8,30,0.12
2013-4-22,42.3,34.2,30.4,31.6,27.9,24.8,90,78,57,30.25,30.08,17,7,22,0.00
2013-4-23,42.6,32.3,22.3,27.5,20.6,17.3,89,64,41,30.20,30.05,15,7,18,0.02
2013-4-24,49.6,35.8,23.0,33.3,26.4,17.2,88,70,47,30.08,29.87,22,6,28,0.00
2013-4-25,55.9,39.7,27.3,32.8,28.7,23.7,88,67,40,30.18,29.94,15,6,20,0.00
2013-4-26,69.6,52.8,37.4,43.6,35.3,29.2,79,54,27,30.13,29.91,14,5,18,0.00
2013-4-27,79.0,56.7,32.5,41.4,34.6,27.1,83,49,23,30.13,29.82,14,4,20,0.00
2013-4-28,80.1,63.3,49.6,53.3,46.4,33.3,78,56,33,29.87,29.66,20,8,26,0.00
2013-4-29,80.6,58.8,38.3,46.5,38.6,32.2,79,52,21,29.85,29.51,15,4,23,0.00
2013-4-30,68.0,60.5,50.2,56.7,43.6,31.5,84,56,28,29.99,29.34,22,10,32,0.00
2013-5-1,55.4,41.6,35.4,33.8,26.8,22.6,67,56,45,30.52,29.88,18,9,23,0.00
2013-5-2,46.6,38.1,31.3,26.1,23.5,20.3,69,56,41,30.57,30.45,20,10,27,0.00
2013-5-3,46.9,36.6,28.0,31.8,25.0,20.2,84,64,44,30.47,30.17,16,8,22,0.00
2013-5-4,41.9,37.2,31.8,37.1,33.4,28.4,90,86,81,30.19,30.15,13,7,18,0.22
2013-5-5,71.1,49.9,37.2,51.0,41.2,33.7,88,74,47,30.20,30.07,12,4,15,0.00
2013-5-6,80.4,58.4,37.9,53.6,45.5,35.0,91,66,37,30.13,30.00,9,1,10,0.00
2013-5-7,85.3,64.1,45.0,54.5,47.1,41.1,88,58,29,30.06,29.92,13,2,17,0.00
2013-5-8,79.3,60.9,53.8,55.0,50.6,42.3,90,70,40,30.02,29.92,16,4,23,0.06
2013-5-9,57.7,52.0,42.4,52.3,46.2,33.7,92,81,61,30.16,29.98,13,6,23,0.08
2013-5-10,72.3,51.0,31.3,39.4,30.7,24.9,81,50,21,30.17,29.87,22,4,28,0.00
2013-5-11,64.9,44.9,33.1,37.9,25.8,17.5,70,49,31,30.19,29.88,27,12,37,0.00
2013-5-12,63.0,43.7,25.5,26.1,21.1,16.4,71,44,22,30.24,30.07,22,4,25,0.00
2013-5-13,82.2,57.2,35.8,48.8,34.5,18.5,65,44,30,30.10,29.63,21,6,26,0.02
2013-5-14,94.3,68.3,43.7,57.4,45.2,33.8,85,50,15,29.71,29.48,26,7,32,0.00
2013-5-15,86.2,67.6,48.2,48.5,43.1,39.7,76,45,22,29.91,29.71,21,5,25,0.00
2013-5-16,86.5,68.6,49.8,47.2,41.7,33.7,66,41,23,29.93,29.78,22,6,25,0.00
2013-5-17,72.9,61.4,56.3,55.5,45.6,31.3,86,59,29,29.98,29.89,18,9,24,0.20
2013-5-18,82.8,66.5,55.2,68.0,59.5,51.9,91,79,60,29.95,29.76,17,7,22,0.98
2013-5-19,84.4,70.2,63.1,69.4,63.0,-24.9,92,79,54,29.77,29.55,18,6,25,0.49
2013-5-20,77.0,64.1,54.7,65.6,57.1,50.9,92,79,60,29.58,29.48,19,7,25,0.26
2013-5-21,62.2,49.1,45.1,50.5,46.2,43.0,93,90,86,29.77,29.53,13,5,16,0.47
2013-5-22,52.3,46.8,42.1,48.0,43.7,29.9,93,89,48,30.05,29.74,18,7,24,0.24
2013-5-23,73.2,53.1,41.5,41.5,37.2,32.0,91,59,29,30.32,30.02,13,5,20,0.00
2013-5-24,73.8,53.8,34.9,50.0,39.4,29.6,87,62,32,30.36,30.18,19,4,24,0.45
2013-5-25,71.2,59.1,52.3,52.4,49.1,46.3,89,71,50,30.25,30.17,19,9,23,0.02
2013-5-26,65.8,57.3,50.9,47.3,43.8,39.5,78,62,41,30.21,30.01,21,9,29,0.00
2013-5-27,67.6,59.6,55.2,53.8,49.8,43.9,81,70,59,30.07,29.84,17,8,22,0.00
2013-5-28,71.4,59.5,53.2,59.3,53.2,50.1,90,80,63,29.84,29.72,12,4,15,0.00
2013-5-29,82.9,67.1,53.2,69.8,59.7,50.3,92,78,57,29.81,29.61,21,6,24,0.27
2013-5-30,80.8,69.0,63.3,67.1,62.5,59.1,92,81,57,29.64,29.50,20,7,28,0.24
2013-5-31,73.8,64.9,56.5,60.6,55.1,40.2,93,72,51,29.55,29.47,22,7,29,0.45
2013-6-1,71.2,56.5,47.5,59.4,49.2,42.6,92,77,66,29.98,29.53,21,6,24,0.00
2013-6-2,71.2,56.6,43.5,45.4,42.4,38.6,85,62,36,30.10,29.96,13,5,18,0.02
2013-6-3,74.7,58.2,39.9,50.7,43.8,35.8,89,62,37,30.06,29.95,12,3,15,0.00
2013-6-4,62.2,55.6,50.2,55.6,48.5,42.3,90,78,56,30.07,29.96,16,8,23,0.85
2013-6-5,63.3,55.7,50.7,56.3,51.9,47.3,92,87,77,30.03,29.95,18,5,29,0.26
2013-6-6,60.6,53.8,48.6,52.3,48.4,46.1,91,82,71,30.05,29.98,71,12,71,0.00
2013-6-7,75.6,59.1,46.2,57.1,49.9,42.7,90,73,51,30.06,29.91,19,8,71,0.00
2013-6-8,78.4,62.9,45.0,58.2,51.7,42.1,93,69,46,29.92,29.86,21,7,71,0.00
2013-6-9,64.2,59.3,56.1,56.5,54.5,52.6,91,84,74,29.88,29.79,20,10,29,0.35
2013-6-10,89.8,67.8,57.2,65.3,58.6,55.0,93,75,43,29.87,29.80,71,10,71,0.00
2013-6-11,82.6,68.6,53.8,66.6,59.9,50.9,92,75,50,29.90,29.78,19,4,71,2.56
2013-6-12,80.2,66.2,58.6,62.3,55.6,48.9,87,70,47,29.96,29.78,14,4,20,3.65
2013-6-13,90.1,68.0,52.7,61.7,53.4,46.7,84,62,36,30.10,29.95,15,3,17,0.00
2013-6-14,84.9,70.4,56.8,63.9,57.3,48.6,78,64,48,30.07,29.84,21,8,26,0.00
2013-6-15,88.9,74.3,60.1,66.6,58.5,47.9,87,61,28,29.90,29.84,14,4,20,0.00
2013-6-16,87.4,71.0,52.0,58.2,51.3,45.3,80,54,27,29.91,29.82,20,5,26,0.00
2013-6-17,86.9,69.9,54.9,59.9,54.3,48.8,84,60,37,30.04,29.85,16,5,23,0.00
2013-6-18,88.0,66.7,50.2,61.0,51.2,40.1,71,59,37,30.10,30.00,13,3,16,0.00
2013-6-19,95.7,74.5,55.2,66.0,58.9,50.5,88,61,35,30.03,29.90,17,5,23,0.00
2013-6-20,97.7,78.9,68.2,70.9,64.8,57.8,86,64,38,29.97,29.81,20,7,29,0.12
2013-6-21,85.6,71.6,65.5,67.1,64.7,59.5,92,80,54,30.09,29.68,86,13,86,1.82
2013-6-22,91.8,72.5,64.6,72.2,65.4,62.2,93,80,51,29.97,29.80,71,12,71,0.20
2013-6-23,90.0,73.9,63.3,68.3,63.8,58.0,94,73,44,29.86,29.58,86,14,86,1.68
2013-6-24,91.2,75.2,57.4,71.7,64.2,54.2,92,71,51,29.90,29.77,71,12,71,0.00
2013-6-25,81.1,76.9,74.5,69.1,68.8,68.2,83,76,66,29.78,29.68,6,3,9,0.00
2013-6-26,87.3,78.1,70.5,71.2,67.5,62.3,92,72,48,29.81,29.64,19,5,25,0.00
2013-6-27,89.8,76.5,66.4,66.1,60.5,54.1,88,61,39,29.83,29.78,20,7,25,0.00
2013-6-28,80.2,70.7,64.8,65.1,59.4,55.1,80,68,52,29.83,29.78,24,10,28,0.04
2013-6-29,80.4,69.4,59.5,62.8,57.8,51.6,93,69,41,30.00,29.78,21,8,25,0.16
2013-6-30,88.0,69.7,53.6,59.2,54.5,49.4,90,62,35,30.12,29.99,16,4,21,0.00
2013-7-1,92.5,73.1,55.2,62.2,56.3,51.3,89,60,33,30.19,30.11,13,3,18,0.00
2013-7-2,90.7,73.2,56.1,60.2,54.6,50.9,85,55,31,30.17,30.04,10,2,14,0.00
2013-7-3,99.5,73.8,55.6,62.6,56.3,51.3,89,59,27,30.07,29.92,10,2,14,0.00
2013-7-4,97.0,77.3,57.0,65.4,58.2,51.8,87,56,29,29.95,29.81,19,5,24,0.00
2013-7-5,94.6,80.8,68.7,67.7,61.6,55.5,64,53,40,29.85,29.75,20,7,26,0.00
2013-7-6,87.6,77.4,70.9,71.1,65.8,43.5,84,68,55,29.85,29.78,14,4,20,0.04
2013-7-7,97.5,78.9,67.1,75.3,69.1,63.6,89,74,48,29.90,29.79,18,2,24,0.26
2013-7-8,95.0,76.5,64.8,72.1,66.3,62.1,93,73,42,30.01,29.89,8,2,13,0.00
2013-7-9,88.2,75.6,67.3,71.5,66.6,60.5,90,75,50,29.97,29.71,20,7,26,0.43
2013-7-10,85.1,70.2,57.0,60.4,56.1,53.2,89,64,37,30.06,29.93,17,5,25,0.00
2013-7-11,91.4,73.4,55.2,63.3,58.3,51.7,91,63,35,30.10,29.93,17,4,26,0.00
2013-7-12,94.5,79.7,67.8,68.4,62.6,56.8,70,57,42,29.96,29.82,22,9,32,0.00
2013-7-13,91.2,74.8,69.3,73.2,65.8,60.8,87,74,54,30.04,29.88,20,7,25,0.35
2013-7-14,89.4,73.6,67.6,72.5,64.3,58.8,86,73,55,30.18,30.02,12,4,15,0.02
2013-7-15,96.3,79.9,66.2,71.9,67.1,62.9,91,68,41,30.21,30.12,13,4,20,1.54
2013-7-16,100.9,83.7,72.7,72.9,69.0,65.5,86,64,37,30.19,30.12,18,5,34,9.88
2013-7-17,101.1,84.0,70.9,73.1,68.6,64.8,82,62,40,30.21,30.08,20,4,25,0.00
2013-7-18,100.2,85.6,73.9,73.9,70.4,67.4,81,62,41,30.09,29.72,21,8,26,0.00
2013-7-19,87.6,77.6,62.8,71.1,62.9,57.2,87,62,42,29.91,29.71,31,7,38,0.10
2013-7-20,83.8,70.4,62.2,62.0,58.6,54.7,91,68,46,29.96,29.87,12,3,16,0.00
2013-7-21,92.3,73.4,58.8,69.2,60.1,50.9,81,64,46,29.95,29.77,15,6,20,0.00
2013-7-22,83.1,74.2,63.7,70.1,62.6,54.4,88,69,48,29.88,29.67,21,7,25,0.00
2013-7-23,84.0,67.4,53.8,56.5,53.3,49.9,91,63,37,30.02,29.85,14,3,18,0.00
2013-7-24,88.3,70.6,58.5,60.5,55.7,50.8,84,62,35,30.06,29.93,14,2,20,0.02
2013-7-25,85.8,70.4,58.3,65.9,60.6,55.2,93,73,45,29.98,29.88,18,3,20,0.12
2013-7-26,69.1,61.4,49.3,58.2,51.5,43.7,88,71,50,30.11,29.90,24,7,28,0.00
2013-7-27,68.7,57.0,46.0,48.9,45.3,42.3,88,66,45,30.11,29.95,19,8,24,0.00
2013-7-28,79.9,60.2,44.1,55.3,48.2,40.1,89,67,43,30.05,29.98,14,4,22,0.00
2013-7-29,84.2,65.2,47.8,59.0,53.2,44.6,91,68,40,30.11,30.04,13,3,21,1.05
2013-7-30,84.9,67.8,61.2,67.5,60.4,56.3,89,78,53,30.09,30.02,9,2,12,0.02
2013-7-31,79.9,71.0,58.8,63.6,55.9,48.6,93,62,36,30.07,29.97,18,6,25,0.00
2013-8-1,85.5,68.1,50.9,58.8,52.6,46.6,88,61,37,30.03,29.85,13,2,22,0.00
2013-8-2,80.4,67.4,52.3,57.8,52.4,48.0,88,62,37,30.04,29.87,14,3,18,0.00
2013-8-3,81.0,64.8,48.7,57.1,49.5,44.7,89,61,32,30.20,30.03,16,3,51,0.00
2013-8-4,84.7,66.5,48.0,59.1,51.7,44.3,89,62,38,30.23,29.96,11,2,16,0.00
2013-8-5,83.5,70.1,59.4,65.4,60.0,52.9,89,72,49,30.00,29.79,15,4,24,0.24
2013-8-6,86.2,66.6,54.0,69.1,59.0,50.5,91,78,53,29.85,29.67,22,5,71,0.26
2013-8-7,80.8,66.6,55.8,58.6,53.4,50.1,93,66,37,30.01,29.77,71,10,71,0.02
2013-8-8,83.8,67.3,55.2,62.1,56.5,50.1,89,70,46,30.04,29.96,13,2,18,0.00
2013-8-9,75.7,63.8,50.7,56.9,51.7,47.8,92,68,43,30.12,29.97,18,4,25,0.00
2013-8-10,81.3,66.2,51.6,58.6,53.1,46.9,89,65,41,30.18,30.06,8,1,10,0.00
2013-8-11,85.1,72.9,57.4,62.5,57.5,50.6,83,61,41,30.08,29.74,11,2,16,0.00
2013-8-12,82.8,74.1,54.0,57.9,55.5,50.7,90,54,37,30.08,29.99,17,5,22,0.00
2013-8-13,81.1,64.2,49.3,56.8,49.3,46.1,92,63,34,30.20,30.05,12,2,55,0.00
2013-8-14,83.1,65.3,49.3,57.1,50.4,45.3,89,62,35,30.19,30.06,12,2,20,0.00
2013-8-15,87.3,67.8,49.6,60.3,53.6,45.8,89,64,37,30.12,30.04,11,2,16,0.00
2013-8-16,86.2,69.6,61.3,57.3,55.1,41.3,74,61,37,30.17,30.09,13,2,18,0.00
2013-8-17,86.4,70.3,54.3,60.4,56.3,50.2,90,64,41,30.16,30.06,18,5,29,0.00
2013-8-18,85.3,72.2,57.7,60.4,57.2,52.6,84,61,42,30.09,29.95,21,7,26,0.00
2013-8-19,93.4,78.5,66.9,71.5,65.2,57.7,80,65,47,30.00,29.86,16,5,24,0.00
2013-8-20,94.5,80.9,68.7,74.6,70.4,65.3,89,72,52,29.88,29.82,16,5,22,1.97
2013-8-21,92.1,79.2,69.6,75.1,67.2,56.8,93,70,38,30.01,29.80,18,4,24,3.44
2013-8-22,87.6,72.6,58.6,56.8,52.0,46.5,82,52,30,30.14,30.00,15,3,40,0.00
2013-8-23,93.4,72.8,54.1,65.8,57.3,47.1,79,60,39,30.13,29.99,17,5,25,0.00
2013-8-24,93.9,80.5,69.6,72.4,69.2,64.4,86,70,48,30.02,29.87,23,9,30,0.00
2013-8-25,97.9,84.9,76.1,76.9,73.1,69.8,82,69,50,29.97,29.89,20,7,25,0.00
2013-8-26,101.8,87.1,75.0,77.2,74.7,70.7,88,68,44,29.95,29.80,18,4,37,0.00
2013-8-27,93.0,82.6,72.3,76.2,72.6,67.4,89,73,50,29.93,29.76,13,3,18,0.00
2013-8-28,94.5,78.5,65.1,73.1,67.6,62.4,93,71,44,30.01,29.91,17,3,20,0.00
2013-8-29,97.2,83.3,71.4,77.6,70.6,64.3,90,68,45,30.00,29.82,18,5,25,0.00
2013-8-30,89.8,76.6,67.8,69.2,65.2,60.0,90,69,46,29.95,29.82,16,5,23,0.00
2013-8-31,93.4,73.1,60.1,68.2,62.7,56.2,91,72,42,29.90,29.71,28,5,71,0.14
2013-9-1,73.8,66.2,55.0,62.6,57.2,49.0,88,73,55,30.01,29.72,71,14,71,0.00
2013-9-2,75.0,59.7,48.9,54.6,50.2,45.5,90,72,45,30.11,29.98,71,10,71,0.00
2013-9-3,83.8,63.7,44.2,60.1,52.9,41.5,93,71,44,30.08,29.96,20,5,71,0.00
2013-9-4,87.3,70.6,56.5,65.4,59.1,53.0,91,69,43,30.16,29.97,11,2,14,0.00
2013-9-5,89.8,72.7,58.1,64.9,58.2,51.9,82,63,40,30.21,30.06,14,4,21,0.00
2013-9-6,95.4,79.8,67.8,70.2,67.2,63.6,92,68,44,30.08,29.82,19,5,26,0.00
2013-9-7,94.5,78.7,66.7,72.0,66.8,56.3,92,69,43,30.04,29.83,17,4,26,0.00
2013-9-8,79.9,63.5,60.6,60.2,55.8,51.7,84,76,66,30.05,29.87,21,5,32,0.02
2013-9-9,90.9,72.4,62.8,75.2,66.6,56.8,93,83,57,29.92,29.62,22,5,71,3.49
2013-9-10,84.6,72.0,63.0,69.1,62.1,57.6,91,73,42,29.97,29.71,22,5,25,0.00
2013-9-11,84.0,70.9,60.1,62.4,55.3,48.0,91,62,33,30.08,29.95,19,6,25,0.00
2013-9-12,74.1,60.9,48.7,55.7,47.8,41.8,89,64,40,30.23,30.08,16,5,23,0.00
2013-9-13,75.4,56.9,39.9,51.4,43.9,36.7,92,65,38,30.27,30.05,12,2,14,0.00
2013-9-14,75.4,58.0,49.6,55.8,49.4,42.6,91,74,45,30.08,29.89,16,4,36,11.93
2013-9-15,64.2,56.8,44.4,56.7,51.3,41.1,92,82,64,30.32,29.88,15,5,21,0.16
2013-9-16,69.1,51.7,36.1,47.1,41.2,33.7,94,71,41,30.40,30.21,13,3,18,0.00
2013-9-17,68.7,57.3,46.0,55.3,49.9,41.8,91,77,60,30.22,29.91,17,6,24,0.00
2013-9-18,78.4,66.7,57.9,69.9,63.0,54.6,94,88,74,29.93,29.66,17,5,22,0.02
2013-9-19,74.3,67.3,58.8,70.0,63.3,52.3,95,87,74,29.81,29.61,14,4,20,0.24
2013-9-20,63.5,56.0,48.2,53.4,50.0,44.9,91,81,53,29.95,29.79,15,6,24,0.02
2013-9-21,64.6,51.4,41.2,49.3,44.3,38.8,93,78,56,30.01,29.90,10,2,13,0.00
2013-9-22,74.5,57.8,43.2,57.6,49.5,40.1,92,76,55,29.95,29.79,21,8,26,0.00
2013-9-23,75.7,63.4,54.0,55.9,52.5,48.4,83,69,49,29.89,29.81,20,8,28,0.00
2013-9-24,76.8,60.9,49.3,58.9,51.9,45.6,91,74,52,29.95,29.88,10,2,13,0.00
2013-9-25,75.4,60.6,47.7,58.2,51.4,44.9,93,74,49,29.95,29.82,19,5,25,0.00
2013-9-26,81.5,66.5,53.8,62.2,56.2,49.4,87,71,51,29.88,29.75,23,8,29,0.00
2013-9-27,81.3,71.2,65.7,66.4,61.9,58.6,82,73,59,29.86,29.72,20,8,26,0.00
2013-9-28,74.3,59.9,46.6,61.6,52.6,41.8,89,77,61,29.90,29.58,19,7,24,0.18
2013-9-29,75.7,58.0,39.4,52.3,45.9,36.1,92,67,40,29.92,29.72,17,4,23,0.00
2013-9-30,77.9,65.6,53.8,56.0,50.1,44.6,73,58,44,29.74,29.56,16,6,23,0.00
2013-10-1,71.2,62.1,45.7,52.5,44.0,34.9,72,54,27,29.97,29.53,22,6,29,0.00
2013-10-2,77.0,53.4,37.9,49.5,42.8,34.0,90,72,29,30.03,29.86,50,4,51,4.00
2013-10-3,54.7,53.2,51.6,52.4,50.4,48.5,93,90,89,29.99,29.88,14,4,43,0.26
2013-10-4,57.9,53.7,51.1,52.1,50.3,48.5,93,88,80,30.02,29.84,16,7,36,0.10
2013-10-5,59.0,52.3,45.7,54.1,49.2,42.5,94,89,78,29.88,29.73,23,5,40,0.36
2013-10-6,52.0,48.4,42.6,48.8,45.3,39.0,93,89,82,29.85,29.68,17,5,21,0.04
2013-10-7,66.0,51.8,39.9,47.2,42.3,37.2,93,73,45,29.96,29.82,12,2,15,0.00
2013-10-8,78.3,60.2,43.9,52.4,45.8,39.7,88,62,38,29.94,29.72,22,7,27,7.67
2013-10-9,75.4,62.6,53.1,55.5,49.8,45.7,78,64,48,30.00,29.82,16,5,22,0.00
2013-10-10,76.8,61.9,50.2,58.6,50.6,44.9,84,68,50,30.00,29.83,20,6,24,0.00
2013-10-11,72.3,61.8,55.0,59.3,53.6,48.7,87,75,58,29.84,29.54,25,9,36,0.43
2013-10-12,60.4,49.1,43.3,49.5,42.3,37.9,87,77,70,30.16,29.59,19,7,26,0.06
2013-10-13,58.6,44.1,30.0,43.4,34.9,26.9,92,72,42,30.42,30.11,10,1,13,0.00
2013-10-14,51.4,44.5,37.9,43.4,39.3,33.4,90,82,71,30.39,29.93,17,5,24,0.32
2013-10-15,48.6,46.0,42.6,46.6,44.0,40.7,94,92,90,29.99,29.70,23,9,29,0.95
2013-10-16,53.8,44.0,34.0,41.2,37.5,30.5,93,79,51,29.96,29.85,16,4,20,0.00
2013-10-17,50.7,42.2,34.0,45.9,38.8,30.3,92,88,80,29.89,29.78,15,3,21,0.63
2013-10-18,52.9,41.9,32.5,37.6,33.9,29.9,92,75,44,29.98,29.81,16,4,22,0.06
2013-10-19,45.1,37.7,28.6,38.2,33.3,25.5,90,84,72,29.84,29.68,13,3,16,0.08
2013-10-20,37.9,34.1,28.6,34.1,30.9,25.4,91,88,75,29.89,29.63,13,3,18,0.20
2013-10-21,39.9,32.5,23.0,25.7,22.8,18.5,86,68,55,29.94,29.85,19,6,24,0.00
2013-10-22,42.4,32.5,21.0,32.4,26.5,17.2,89,79,63,30.03,29.93,11,2,16,0.00
2013-10-23,37.0,33.4,31.3,27.7,24.0,19.7,84,69,54,30.11,29.99,14,5,19,0.00
2013-10-24,43.2,35.6,28.8,31.1,27.4,19.7,85,72,56,30.28,30.09,15,4,21,0.00
2013-10-25,56.3,42.4,26.2,43.4,33.5,22.6,88,72,56,30.28,29.74,18,6,42,0.00
2013-10-26,50.5,39.2,30.0,35.8,28.8,23.4,79,66,57,30.10,29.77,60,7,72,8.76
2013-10-27,55.6,39.8,29.1,36.9,29.5,23.4,83,68,47,30.16,29.79,15,5,21,18.89
2013-10-28,41.2,32.8,26.4,27.2,22.4,19.4,77,66,49,30.45,30.10,13,4,34,0.00
2013-10-29,36.7,33.2,27.7,31.1,27.7,20.2,87,80,72,30.42,30.09,10,2,16,0.06
2013-10-30,44.4,37.1,34.5,41.9,33.9,31.0,92,88,87,30.11,29.67,3,0,4,0.14
2013-10-31,43.9,40.1,38.5,41.4,37.6,35.9,93,91,87,29.70,29.40,11,4,16,0.00
2013-11-1,48.9,40.9,34.5,38.6,35.5,31.6,91,81,64,29.85,29.42,12,4,16,0.00
2013-11-2,50.0,37.2,28.6,36.3,30.6,25.5,91,78,57,30.06,29.81,12,2,14,0.00
2013-11-3,55.6,42.8,29.1,38.5,33.1,25.4,90,70,47,30.06,29.81,25,9,34,0.00
2013-11-4,47.5,41.7,31.8,41.2,34.3,26.7,85,75,62,30.12,29.77,19,6,24,6.61
2013-11-5,40.1,33.9,28.6,29.5,27.2,24.1,88,77,56,30.23,30.05,10,2,38,0.00
2013-11-6,41.7,32.6,24.4,27.1,23.3,18.7,84,70,49,30.13,30.04,12,4,17,0.02
2013-11-7,39.6,27.7,19.4,28.1,21.5,15.4,89,78,56,30.21,30.13,14,2,29,0.00
2013-11-8,41.2,32.6,20.3,36.7,26.6,16.5,90,79,63,30.16,29.56,14,5,20,0.06
2013-11-9,41.4,38.9,36.0,36.8,31.2,25.7,87,74,60,30.21,29.59,26,11,34,0.00
2013-11-10,41.9,34.9,28.0,30.6,27.4,22.3,82,74,62,30.31,30.04,19,4,25,0.00
2013-11-11,34.5,19.6,10.0,28.4,9.7,3.9,78,65,53,30.72,30.13,19,9,26,0.00
2013-11-12,30.4,18.4,7.5,14.2,8.3,2.4,83,66,40,30.75,30.35,12,4,19,0.00
2013-11-13,50.4,34.6,20.8,33.4,24.7,12.8,78,68,52,30.35,29.83,16,5,20,0.00
2013-11-14,52.5,41.0,34.9,38.5,33.4,29.7,83,74,57,29.83,29.72,12,2,18,0.00
2013-11-15,54.0,41.3,24.1,39.9,34.1,20.8,92,76,54,29.82,29.56,14,3,18,0.00
2013-11-16,45.3,42.5,37.0,43.4,39.2,33.4,93,88,76,29.56,29.23,13,4,18,0.12
2013-11-17,45.5,38.2,29.1,43.6,33.6,22.8,93,84,76,29.83,29.26,21,9,32,0.00
2013-11-18,32.2,26.3,18.3,22.8,18.8,13.7,85,73,61,30.23,29.83,21,7,26,0.00
2013-11-19,47.7,33.6,18.9,32.7,25.4,15.0,87,73,55,30.22,29.80,25,9,31,0.00
2013-11-20,50.0,41.5,31.6,35.2,30.9,27.1,86,66,56,30.02,29.80,13,6,37,0.00
2013-11-21,37.2,26.5,18.7,32.9,19.8,10.2,88,76,65,30.53,30.01,19,9,25,0.00
2013-11-22,30.9,16.9,6.4,14.1,7.3,-0.8,83,67,37,30.65,30.43,19,7,27,0.00
2013-11-23,16.2,7.6,1.6,1.9,-1.0,-3.2,81,68,46,30.82,30.64,14,5,20,0.00
2013-11-24,35.4,21.1,3.6,20.6,10.2,-2.6,78,64,46,30.65,29.86,22,8,27,0.00
2013-11-25,39.0,32.4,26.6,27.4,23.7,18.5,82,70,58,30.08,29.82,22,9,29,0.00
2013-11-26,26.6,17.1,7.5,19.1,6.3,1.1,76,62,50,30.38,30.08,24,10,30,0.00
2013-11-27,23.5,15.1,2.8,13.0,6.4,-2.6,82,69,59,30.38,30.02,13,4,17,0.00
2013-11-28,25.0,18.7,5.9,15.3,9.6,0.2,78,68,58,30.48,30.03,15,3,16,0.00
2013-11-29,30.7,20.7,5.2,19.4,12.9,-0.5,82,72,59,30.48,30.07,15,5,21,0.00
2013-11-30,37.0,27.2,17.2,26.4,20.1,12.7,84,75,63,30.16,30.00,11,3,14,3.14
2013-12-1,35.2,28.3,22.8,27.9,21.7,16.3,87,76,68,30.18,29.89,57,2,75,0.00
2013-12-2,38.3,32.0,27.3,32.2,28.0,22.5,91,85,78,29.89,29.55,12,6,16,0.08
2013-12-3,34.7,33.1,30.4,32.4,30.7,27.0,92,91,87,29.79,29.57,14,4,22,0.16
2013-12-4,30.9,24.9,9.7,27.2,21.3,4.7,89,86,80,29.79,29.48,20,7,37,0.00
2013-12-5,9.7,2.2,-4.9,4.6,-4.0,-10.3,80,75,70,30.28,29.66,23,10,30,0.00
2013-12-6,0.1,-6.0,-11.9,-7.9,-12.1,-17.4,80,74,67,30.60,30.28,12,4,25,0.00
2013-12-7,1.2,-8.1,-14.6,-7.7,-14.5,-20.0,78,73,64,31.20,30.50,86,3,86,0.00
2013-12-8,18.0,4.5,-11.6,7.3,-2.0,-17.3,80,74,62,30.51,30.00,86,6,86,0.00
2013-12-9,4.3,-2.7,-8.0,-1.0,-8.8,-13.3,83,74,66,30.05,29.77,100,12,100,0.00
2013-12-10,10.8,2.2,-4.2,1.8,-4.0,-10.4,82,75,66,30.28,29.73,100,11,100,0.00
2013-12-11,1.6,-5.6,-12.8,-4.8,-12.6,-18.2,77,71,63,30.51,30.23,100,11,100,0.00
2013-12-12,22.6,10.8,-3.3,10.7,3.2,-9.2,79,71,58,30.25,30.10,86,2,86,0.00
2013-12-13,15.3,10.7,4.8,8.6,3.3,-1.1,77,72,62,30.29,30.11,50,3,71,6.21
2013-12-14,14.7,5.1,-6.0,6.4,-1.2,-11.9,79,75,65,30.28,30.05,100,9,100,170.63
2013-12-15,3.0,-1.2,-5.6,-7.5,-9.4,-12.2,75,68,58,30.14,30.07,100,12,100,143.07
2013-12-16,29.5,11.4,1.4,24.7,4.7,-8.3,87,74,63,30.08,29.84,100,8,100,0.00
2013-12-17,32.2,19.7,3.9,27.2,13.1,-2.1,86,75,64,30.08,29.82,86,10,100,0.00
2013-12-18,33.6,21.2,7.2,23.8,15.1,2.3,84,77,65,30.03,29.60,71,7,100,0.00
2013-12-19,21.4,13.6,10.2,16.2,7.2,3.8,81,76,66,30.10,29.82,71,10,71,0.00
2013-12-20,18.0,10.2,1.6,9.6,4.5,-2.7,82,77,69,30.05,29.84,100,7,100,0.00
2013-12-21,17.4,12.5,9.1,11.3,7.9,5.0,86,82,76,30.02,29.84,86,5,86,0.00
2013-12-22,14.7,9.6,0.0,8.3,4.2,-5.3,83,78,70,30.24,29.96,86,10,86,0.00
2013-12-23,0.1,-6.0,-14.1,-5.1,-13.0,-20.9,78,71,63,30.48,30.23,100,13,100,0.00
2013-12-24,11.7,-1.5,-17.7,5.0,-8.6,-24.3,79,71,55,30.44,30.06,71,9,71,0.00
2013-12-25,26.4,16.0,10.2,19.1,9.9,5.0,82,77,67,30.10,30.00,86,7,86,0.00
2013-12-26,28.9,18.8,7.0,19.3,12.5,1.8,84,76,65,30.13,30.02,86,4,86,1.46
2013-12-27,41.2,27.9,6.6,31.6,23.0,1.5,90,82,67,30.12,29.83,86,5,86,0.10
2013-12-28,43.7,29.2,10.8,33.8,25.0,4.5,91,85,67,30.08,29.65,44,7,86,0.00
2013-12-29,10.8,-6.3,-16.1,4.5,-14.5,-23.0,76,67,55,30.34,30.08,86,14,100,0.00
2013-12-30,11.7,-5.1,-16.4,0.3,-12.4,-23.3,76,70,59,30.23,30.12,100,8,100,0.00
2013-12-31,-1.1,-9.8,-14.6,-9.6,-16.4,-21.0,77,72,63,30.40,30.16,100,8,100,0.00
2014-1-1,5.5,-3.6,-11.4,-6.8,-12.7,-17.6,73,65,55,30.46,30.37,100,11,100,3.14
2014-1-2,1.2,-8.5,-15.2,-10.3,-16.7,-21.5,74,67,55,30.49,30.28,100,10,100,0.00